Time;durP1;ratioP1;P1;durP2;ratioP2;P2;SDS_P1;SDS_P2;PMS_P1;PMS_P2;Temp;Humidity;BMP_temperature;BMP_pressure;BME280_temperature;BME280_humidity;BME280_pressure;Samples;Min_cycle;Max_cycle;Signal;HPM_P1;HPM_P2
2022/04/25 00:01:21;;;;;;;21.50;4.07;;;;;;;19.05;49.69;96543.97;5093024;28;20020;-83
2022/04/25 00:03:47;;;;;;;20.95;4.38;;;;;;;19.02;49.85;96532.63;5093325;28;20038;-83
2022/04/25 00:06:13;;;;;;;27.40;3.70;;;;;;;19.01;49.16;96520.13;5092951;28;20071;-83
2022/04/25 00:08:38;;;;;;;25.35;4.10;;;;;;;19.17;48.99;96529.03;5093439;28;20067;-84
2022/04/25 00:11:04;;;;;;;24.77;3.63;;;;;;;19.14;48.65;96520.41;5093732;28;20058;-83
2022/04/25 00:13:30;;;;;;;14.82;3.67;;;;;;;19.33;48.13;96539.84;5092954;28;20043;-84
2022/04/25 00:15:56;;;;;;;24.80;3.50;;;;;;;19.34;48.01;96521.72;5093477;28;20125;-84
2022/04/25 00:18:22;;;;;;;21.13;3.58;;;;;;;19.35;48.22;96531.53;5093471;28;20024;-83
2022/04/25 00:20:48;;;;;;;19.42;4.28;;;;;;;19.34;48.24;96538.84;5093308;28;20034;-82
2022/04/25 00:23:14;;;;;;;26.17;3.88;;;;;;;19.37;48.35;96553.91;5096585;28;20032;-84
2022/04/25 00:25:40;;;;;;;16.42;3.50;;;;;;;19.37;47.82;96537.66;5097677;28;20464;-83
2022/04/25 00:28:07;;;;;;;23.65;4.00;;;;;;;19.39;48.14;96551.88;5097558;28;20058;-83
2022/04/25 00:30:33;;;;;;;31.63;4.20;;;;;;;19.21;49.19;96549.38;5097800;28;20065;-83
2022/04/25 00:32:59;;;;;;;24.33;4.40;;;;;;;19.00;49.97;96561.78;5096579;28;20492;-83
2022/04/25 00:35:25;;;;;;;22.90;4.25;;;;;;;18.69;51.49;96567.91;5097007;28;20429;-82
2022/04/25 00:37:51;;;;;;;24.33;4.47;;;;;;;18.51;52.36;96577.19;5097117;28;20034;-85
2022/04/25 00:40:22;;;;;;;22.35;4.10;;;;;;;18.27;53.25;96569.84;5096472;28;20031;-83
2022/04/25 00:42:48;;;;;;;16.60;4.32;;;;;;;18.11;54.07;96588.75;5100660;28;20034;-84
2022/04/25 00:45:14;;;;;;;23.10;4.40;;;;;;;17.91;55.36;96588.19;5096971;28;20072;-83
2022/04/25 00:47:41;;;;;;;18.63;3.53;;;;;;;17.75;55.43;96563.75;5096126;28;20430;-82
2022/04/25 00:50:08;;;;;;;23.65;4.53;;;;;;;17.87;53.76;96579.53;5096737;28;20055;-82
2022/04/25 00:52:34;;;;;;;24.00;4.38;;;;;;;17.92;54.88;96581.78;5096793;28;20380;-83
2022/04/25 00:55:01;;;;;;;24.38;4.40;;;;;;;17.78;54.92;96575.09;5096586;28;20479;-83
2022/04/25 00:57:27;;;;;;;25.10;4.95;;;;;;;17.70;56.13;96572.38;5113494;28;20023;-83
2022/04/25 00:59:54;;;;;;;16.38;4.47;;;;;;;17.44;57.21;96559.91;5096397;28;20076;-84
2022/04/25 01:02:20;;;;;;;19.00;4.22;;;;;;;17.37;58.43;96591.28;5096452;28;20118;-83
2022/04/25 01:04:45;;;;;;;16.48;4.68;;;;;;;17.14;59.42;96577.44;5096199;28;20083;-83
2022/04/25 01:07:11;;;;;;;23.48;4.82;;;;;;;17.01;60.15;96579.75;5096217;28;20024;-83
2022/04/25 01:09:36;;;;;;;24.10;4.53;;;;;;;16.97;60.57;96583.75;5113483;28;20027;-83
2022/04/25 01:12:03;;;;;;;24.60;4.60;;;;;;;16.92;61.42;96586.09;5112799;28;20027;-83
2022/04/25 01:14:32;;;;;;;23.98;4.53;;;;;;;16.88;61.79;96585.56;5096702;28;20046;-83
2022/04/25 01:16:57;;;;;;;22.30;4.65;;;;;;;16.80;61.29;96572.81;5096665;27;20559;-83
2022/04/25 01:19:23;;;;;;;20.30;4.03;;;;;;;16.75;61.24;96572.47;5096995;28;20027;-84
2022/04/25 01:22:04;;;;;;;23.08;4.80;;;;;;;16.78;61.59;96577.53;5096421;28;20023;-83
2022/04/25 01:27:19;;;;;;;24.42;4.43;;;;;;;16.64;62.03;96567.28;5113901;28;20038;-83
2022/04/25 01:29:53;;;;;;;23.58;4.47;;;;;;;16.59;62.38;96564.22;5096153;28;20028;-84
2022/04/25 01:32:20;;;;;;;15.10;4.57;;;;;;;16.50;62.60;96553.47;5096322;28;20035;-84
2022/04/25 01:34:46;;;;;;;20.15;4.70;;;;;;;16.54;62.56;96566.56;5095301;28;20028;-84
2022/04/25 01:37:13;;;;;;;11.20;3.83;;;;;;;16.42;63.66;96556.97;5095995;28;20024;-84
2022/04/25 01:40:09;;;;;;;21.38;5.10;;;;;;;16.47;63.96;96567.28;5096039;28;20458;-84
2022/04/25 01:42:35;;;;;;;35.80;5.40;;;;;;;16.34;64.71;96548.78;5113177;28;20050;-84
2022/04/25 01:45:01;;;;;;;9.25;3.95;;;;;;;16.33;64.01;96536.31;5094959;28;20143;-84
2022/04/25 01:47:26;;;;;;;30.30;4.72;;;;;;;16.28;64.09;96533.19;5093924;28;20563;-84
2022/04/25 01:49:52;;;;;;;22.10;4.45;;;;;;;16.25;65.14;96547.00;5096055;28;20456;-84
2022/04/25 01:52:28;;;;;;;24.70;4.65;;;;;;;16.22;65.38;96540.06;5095887;28;20023;-84
2022/04/25 01:54:54;;;;;;;12.13;3.92;;;;;;;16.22;64.54;96537.38;5093279;28;20034;-84
2022/04/25 01:57:20;;;;;;;18.00;3.90;;;;;;;16.28;63.97;96534.06;5095217;28;20023;-84
2022/04/25 01:59:46;;;;;;;17.17;4.03;;;;;;;16.30;64.03;96522.28;5095912;28;20092;-83
2022/04/25 02:02:13;;;;;;;13.27;3.95;;;;;;;16.31;63.80;96515.84;5096719;28;20027;-84
2022/04/25 02:04:39;;;;;;;14.77;4.35;;;;;;;16.31;64.06;96521.25;5095170;28;20020;-83
2022/04/25 02:07:06;;;;;;;23.67;4.70;;;;;;;16.34;63.82;96516.38;5095409;28;20023;-84
2022/04/25 02:09:32;;;;;;;28.77;4.25;;;;;;;16.24;63.91;96496.75;5092658;28;20479;-84
2022/04/25 02:11:57;;;;;;;25.52;4.35;;;;;;;16.21;64.04;96505.16;5094507;28;20024;-84
2022/04/25 02:14:23;;;;;;;20.75;4.47;;;;;;;16.13;64.54;96499.66;5095397;28;20036;-83
2022/04/25 02:16:48;;;;;;;24.67;5.30;;;;;;;16.17;64.58;96504.63;5094701;28;20028;-84
2022/04/25 02:19:14;;;;;;;22.15;4.00;;;;;;;16.20;64.80;96507.00;5093244;28;20423;-83
2022/04/25 02:21:40;;;;;;;17.45;4.47;;;;;;;16.21;64.91;96505.16;5094648;28;20036;-83
2022/04/25 02:24:06;;;;;;;20.70;5.00;;;;;;;16.11;65.85;96499.00;5095259;28;20027;-84
2022/04/25 02:26:31;;;;;;;14.55;3.72;;;;;;;16.05;64.98;96499.63;5112087;28;20030;-84
2022/04/25 02:28:57;;;;;;;24.35;4.53;;;;;;;16.02;66.40;96519.66;5094936;28;20028;-84
2022/04/25 02:31:26;;;;;;;21.55;4.70;;;;;;;15.90;67.29;96511.94;5094096;28;20116;-84
2022/04/25 02:33:51;;;;;;;25.88;4.40;;;;;;;15.80;68.78;96511.16;5095641;28;20172;-84
2022/04/25 02:36:17;;;;;;;24.13;4.90;;;;;;;15.69;68.96;96499.56;5093850;28;20106;-84
2022/04/25 02:38:43;;;;;;;20.17;4.88;;;;;;;15.63;69.27;96496.63;5094572;28;20604;-84
2022/04/25 02:41:09;;;;;;;21.17;4.45;;;;;;;16.01;64.02;96495.50;5095211;28;20019;-84
2022/04/25 02:43:44;;;;;;;18.55;4.32;;;;;;;16.47;62.27;96497.09;5095199;28;20030;-85
2022/04/25 02:46:14;;;;;;;22.88;3.95;;;;;;;16.72;60.20;96482.81;5093909;28;20032;-85
2022/04/25 02:48:41;;;;;;;20.75;4.63;;;;;;;16.89;59.29;96479.19;5094582;28;20035;-85
2022/04/25 02:51:08;;;;;;;22.83;4.35;;;;;;;17.22;57.87;96497.28;5096346;27;20023;-85
2022/04/25 02:53:34;;;;;;;19.48;3.88;;;;;;;17.28;57.46;96498.50;5103181;28;20023;-85
2022/04/25 02:56:02;;;;;;;19.90;4.53;;;;;;;17.41;56.96;96493.44;5111988;28;20031;-85
2022/04/25 02:58:29;;;;;;;22.27;3.78;;;;;;;17.41;57.53;96501.56;5094396;28;20027;-84
2022/04/25 03:00:55;;;;;;;24.33;3.83;;;;;;;17.06;58.09;96458.50;5094296;28;20114;-84
2022/04/25 03:03:22;;;;;;;24.20;4.18;;;;;;;17.21;57.87;96478.50;5094300;28;20027;-84
2022/04/25 03:05:49;;;;;;;17.13;4.00;;;;;;;17.20;58.13;96480.38;5093899;28;20047;-85
2022/04/25 03:08:19;;;;;;;27.73;4.38;;;;;;;17.18;58.28;96478.84;5094676;28;20019;-84
2022/04/25 03:10:46;;;;;;;33.13;4.50;;;;;;;17.13;58.27;96470.38;5091779;28;20111;-85
2022/04/25 03:13:13;;;;;;;20.98;4.15;;;;;;;17.06;59.08;96459.38;5111478;28;20035;-85
2022/04/25 03:15:39;;;;;;;29.85;4.22;;;;;;;16.91;59.06;96444.78;5095180;28;20494;-84
2022/04/25 03:18:06;;;;;;;28.75;4.45;;;;;;;16.88;60.84;96466.69;5097648;28;20034;-85
2022/04/25 03:20:34;;;;;;;24.83;4.88;;;;;;;16.58;62.36;96457.22;5095035;28;20513;-84
2022/04/25 03:23:00;;;;;;;16.58;4.47;;;;;;;16.32;64.41;96466.28;5094880;28;20031;-84
2022/04/25 03:25:26;;;;;;;22.80;4.53;;;;;;;15.94;65.88;96451.28;5094337;28;20053;-84
2022/04/25 03:27:53;;;;;;;26.42;5.00;;;;;;;15.76;67.58;96464.75;5095170;28;20054;-85
2022/04/25 03:30:19;;;;;;;24.20;4.60;;;;;;;15.58;69.26;96464.75;5095436;28;20107;-85
2022/04/25 03:32:48;;;;;;;31.25;5.10;;;;;;;15.49;69.78;96471.06;5094823;28;20110;-84
2022/04/25 03:35:16;;;;;;;23.63;5.03;;;;;;;15.39;70.32;96464.84;5093495;28;20047;-84
2022/04/25 03:37:44;;;;;;;23.67;5.38;;;;;;;15.45;70.40;96479.56;5095299;28;20032;-84
2022/04/25 03:40:10;;;;;;;23.58;5.85;;;;;;;15.17;70.98;96466.09;5095061;28;20031;-86
2022/04/25 03:42:37;;;;;;;15.95;4.90;;;;;;;15.23;71.37;96480.81;5095327;28;20063;-83
2022/04/25 03:45:09;;;;;;;16.35;4.78;;;;;;;15.19;71.51;96491.06;5094916;28;20080;-84
2022/04/25 03:47:35;;;;;;;22.83;4.53;;;;;;;15.12;72.22;96494.47;5092008;28;20023;-83
2022/04/25 03:50:01;;;;;;;22.60;4.32;;;;;;;15.17;71.96;96513.72;5102182;28;20529;-83
2022/04/25 03:52:28;;;;;;;20.92;5.13;;;;;;;15.13;72.67;96518.56;5094699;28;20019;-83
2022/04/25 03:57:38;;;;;;;21.85;4.75;;;;;;;15.02;73.09;96526.84;5110249;28;20074;-83
2022/04/25 04:00:05;;;;;;;23.50;5.28;;;;;;;14.84;74.12;96498.13;5094971;28;20459;-83
2022/04/25 04:02:33;;;;;;;20.13;5.05;;;;;;;14.74;74.93;96487.41;5093196;28;20024;-84
2022/04/25 04:05:00;;;;;;;23.15;5.82;;;;;;;14.95;74.91;96520.34;5094680;28;20122;-84
2022/04/25 04:07:26;;;;;;;25.13;5.38;;;;;;;14.95;76.04;96533.81;5080764;28;20044;-84
2022/04/25 04:09:52;;;;;;;24.15;4.95;;;;;;;15.03;74.30;96520.47;5097904;28;20384;-84
2022/04/25 04:12:19;;;;;;;17.70;5.07;;;;;;;15.26;73.84;96529.00;5095242;28;20027;-83
2022/04/25 04:14:45;;;;;;;22.35;4.93;;;;;;;15.48;71.45;96539.44;5094753;28;20083;-85
2022/04/25 04:17:11;;;;;;;23.58;5.63;;;;;;;15.46;69.32;96498.28;5093408;28;20119;-83
2022/04/25 04:19:38;;;;;;;17.52;4.53;;;;;;;15.91;68.21;96532.50;5110528;28;20026;-83
2022/04/25 04:22:07;;;;;;;21.85;4.03;;;;;;;16.50;63.71;96532.72;5093845;28;20050;-83
2022/04/25 04:24:34;;;;;;;24.13;4.10;;;;;;;16.79;61.47;96522.53;5093598;28;20051;-84
2022/04/25 04:27:03;;;;;;;26.38;4.40;;;;;;;17.28;60.53;96550.69;5111286;28;20031;-84
2022/04/25 04:29:29;;;;;;;26.42;4.30;;;;;;;17.28;61.83;96537.19;5108267;28;20555;-84
2022/04/25 04:32:07;;;;;;;24.15;4.32;;;;;;;17.32;62.60;96552.06;5106114;28;20055;-84
2022/04/25 04:34:34;;;;;;;17.73;4.18;;;;;;;17.06;63.64;96556.63;5105144;28;20027;-84
2022/04/25 04:37:00;;;;;;;20.38;4.93;;;;;;;16.90;64.26;96537.63;5110232;28;20019;-84
2022/04/25 04:40:28;;;;;;;22.45;4.97;;;;;;;16.91;65.03;96560.94;5089547;28;20476;-85
2022/04/25 04:42:38;;;;;;;29.08;4.82;;;;;;;16.69;65.24;96554.19;5108137;28;20023;-84
2022/04/25 04:45:04;;;;;;;18.90;4.70;;;;;;;16.85;64.82;96566.13;5110916;28;20024;-84
2022/04/25 04:47:34;;;;;;;20.55;4.95;;;;;;;16.82;64.10;96521.38;5112966;28;20024;-82
2022/04/25 04:50:00;;;;;;;26.70;5.07;;;;;;;16.98;64.45;96529.56;5093746;28;20434;-83
2022/04/25 04:52:26;;;;;;;19.67;5.38;;;;;;;17.04;63.75;96525.38;5093894;28;20042;-83
2022/04/25 04:54:51;;;;;;;37.67;5.97;;;;;;;17.40;63.78;96561.22;5093972;28;20028;-83
2022/04/25 04:57:17;;;;;;;23.38;6.05;;;;;;;17.64;63.40;96569.47;5111161;28;20027;-81
2022/04/25 04:59:42;;;;;;;26.08;5.47;;;;;;;17.71;63.50;96563.28;5110070;28;20055;-79
2022/04/25 05:02:09;;;;;;;20.08;5.25;;;;;;;17.68;62.94;96585.22;5110016;28;20028;-79
2022/04/25 05:04:34;;;;;;;24.17;4.93;;;;;;;17.81;61.96;96582.06;5108472;28;20058;-80
2022/04/25 05:07:00;;;;;;;21.23;4.88;;;;;;;17.91;62.13;96587.31;5091817;28;20059;-80
2022/04/25 05:09:26;;;;;;;18.92;5.07;;;;;;;17.89;62.05;96579.38;5114036;27;20024;-81
2022/04/25 05:11:51;;;;;;;29.60;5.43;;;;;;;18.09;61.08;96590.81;5098191;28;20031;-79
2022/04/25 05:14:17;;;;;;;26.00;4.65;;;;;;;18.34;60.05;96592.53;5097353;28;20450;-76
2022/04/25 05:16:42;;;;;;;27.98;5.32;;;;;;;18.80;57.49;96594.66;5111602;28;20027;-82
2022/04/25 05:19:09;;;;;;;18.17;4.78;;;;;;;19.36;54.18;96582.91;5096217;28;20030;-83
2022/04/25 05:21:35;;;;;;;27.50;5.72;;;;;;;19.84;53.39;96579.22;5095432;28;20352;-79
2022/04/25 05:24:00;;;;;;;20.00;3.85;;;;;;;20.23;50.69;96575.63;5094828;28;20027;-80
2022/04/25 05:26:26;;;;;;;20.60;4.28;;;;;;;20.77;49.12;96568.31;5095304;28;20031;-79
2022/04/25 05:28:51;;;;;;;20.08;3.53;;;;;;;21.41;47.84;96570.47;5095210;28;20028;-80
2022/04/25 05:31:17;;;;;;;29.90;4.38;;;;;;;21.79;46.44;96579.41;5094926;28;20023;-80
2022/04/25 05:33:42;;;;;;;27.88;4.43;;;;;;;21.82;46.14;96580.91;5112610;28;20050;-80
2022/04/25 05:36:08;;;;;;;28.55;4.72;;;;;;;21.84;45.59;96585.13;5094535;28;20031;-80
2022/04/25 05:38:34;;;;;;;21.23;3.65;;;;;;;22.26;44.40;96570.00;5112188;28;20754;-82
2022/04/25 05:40:59;;;;;;;20.60;3.92;;;;;;;22.87;43.72;96577.63;5094623;28;20088;-79
2022/04/25 05:43:25;;;;;;;24.23;4.13;;;;;;;23.29;42.33;96575.91;5110239;28;20031;-81
2022/04/25 05:45:51;;;;;;;28.88;4.45;;;;;;;23.72;42.31;96566.56;5095000;28;20509;-80
2022/04/25 05:53:45;;;;;;;17.50;3.90;;;;;;;25.27;38.43;96538.28;5115343;28;20555;-83
2022/04/25 05:56:11;;;;;;;18.88;3.90;;;;;;;25.38;37.59;96528.59;5095121;28;20019;-84
2022/04/25 05:58:47;;;;;;;25.42;4.40;;;;;;;25.76;37.55;96529.59;5094655;28;20056;-85
2022/04/25 06:01:12;;;;;;;27.45;4.05;;;;;;;26.39;36.05;96515.03;5095752;28;20028;-83
2022/04/25 06:03:55;;;;;;;16.73;3.75;;;;;;;26.77;36.17;96536.97;5095810;28;20028;-84
2022/04/25 06:10:14;;;;;;;21.10;3.78;;;;;;;26.92;35.25;96533.97;4953303;29;20043;-84
2022/04/25 06:12:44;;;;;;;25.42;3.75;;;;;;;27.13;35.38;96541.00;4952254;28;20431;-83
2022/04/25 06:15:11;;;;;;;20.73;3.55;;;;;;;27.25;33.03;96498.88;5080056;28;20032;-85
2022/04/25 06:17:37;;;;;;;24.02;4.40;;;;;;;27.32;33.07;96529.00;5094378;28;20032;-82
2022/04/25 06:20:04;;;;;;;37.05;3.97;;;;;;;27.68;32.24;96520.03;5093870;28;20030;-83
2022/04/25 06:22:30;;;;;;;36.28;4.55;;;;;;;27.97;31.54;96519.28;5096435;28;20028;-82
2022/04/25 06:24:56;;;;;;;26.63;4.28;;;;;;;27.99;30.89;96503.41;5112647;28;20038;-85
2022/04/25 06:27:21;;;;;;;20.70;4.43;;;;;;;28.29;30.83;96517.25;5116294;27;20051;-82
2022/04/25 06:29:47;;;;;;;30.77;5.22;;;;;;;28.75;30.47;96519.41;5094640;28;20032;-82
2022/04/25 06:32:13;;;;;;;31.63;4.30;;;;;;;29.02;29.15;96512.41;5092234;28;20032;-83
2022/04/25 06:34:40;;;;;;;28.42;5.43;;;;;;;28.59;29.06;96509.00;5094635;28;20104;-83
2022/04/25 06:37:06;;;;;;;26.63;4.20;;;;;;;29.12;28.71;96515.44;5095192;28;20461;-84
2022/04/25 06:39:33;;;;;;;35.05;4.93;;;;;;;28.73;28.39;96486.56;5094759;28;20031;-84
2022/04/25 06:42:02;;;;;;;28.15;4.03;;;;;;;28.59;28.50;96503.50;5092210;28;20114;-81
2022/04/25 06:44:28;;;;;;;43.28;4.05;;;;;;;28.76;28.17;96494.41;5109463;28;20051;-81
2022/04/25 06:46:54;;;;;;;35.63;4.28;;;;;;;29.23;27.86;96489.81;5110426;28;20123;-80
2022/04/25 06:49:19;;;;;;;26.23;3.72;;;;;;;29.70;26.68;96495.38;5093229;28;20027;-78
2022/04/25 06:51:49;;;;;;;21.63;4.50;;;;;;;29.40;27.32;96485.31;5091077;28;20028;-81
2022/04/25 06:54:15;;;;;;;27.02;3.95;;;;;;;28.77;28.09;96503.47;5093559;28;20023;-79
2022/04/25 06:56:41;;;;;;;45.28;4.47;;;;;;;29.85;26.85;96498.50;5110341;28;20028;-79
2022/04/25 06:59:07;;;;;;;30.75;4.45;;;;;;;29.50;26.45;96502.06;5110013;28;20092;-79
2022/04/25 07:01:33;;;;;;;24.55;4.20;;;;;;;28.92;27.46;96504.72;5093827;28;20024;-78
2022/04/25 07:03:59;;;;;;;34.50;4.97;;;;;;;30.21;26.19;96506.47;5093480;28;20084;-79
2022/04/25 07:06:25;;;;;;;24.35;4.50;;;;;;;29.50;26.37;96485.53;5093819;28;20052;-81
2022/04/25 07:08:52;;;;;;;38.80;5.10;;;;;;;29.07;27.12;96496.03;5110985;28;20023;-82
2022/04/25 07:11:18;;;;;;;35.83;3.90;;;;;;;30.57;26.07;96510.84;5112851;28;20073;-82
2022/04/25 07:13:45;;;;;;;19.63;3.33;;;;;;;30.95;24.89;96499.16;5110858;28;20496;-83
2022/04/25 07:16:15;;;;;;;30.52;3.88;;;;;;;30.63;25.44;96502.44;5111220;28;20038;-81
2022/04/25 07:18:41;;;;;;;23.27;3.83;;;;;;;31.55;24.98;96513.22;5092999;28;20088;-81
2022/04/25 07:29:21;;;;;;;28.80;3.85;;;;;;;32.24;23.67;96492.38;5107964;28;20035;-81
2022/04/25 07:31:47;;;;;;;32.65;3.80;;;;;;;33.15;22.33;96501.81;5106654;28;20036;-81
2022/04/25 07:34:12;;;;;;;28.17;4.57;;;;;;;32.21;23.52;96496.53;5109645;28;20463;-80
2022/04/25 07:36:38;;;;;;;33.85;5.00;;;;;;;32.27;24.70;96502.94;5109961;28;20034;-81
2022/04/25 07:39:04;;;;;;;31.33;3.97;;;;;;;33.97;22.52;96504.97;5106721;28;20141;-80
2022/04/25 07:41:30;;;;;;;38.72;4.32;;;;;;;35.11;21.10;96495.78;5091701;28;20023;-80
2022/04/25 07:43:55;;;;;;;29.02;3.78;;;;;;;36.21;19.94;96494.13;5110793;28;20486;-80
2022/04/25 07:46:23;;;;;;;49.53;4.60;;;;;;;36.64;19.05;96490.63;5113197;27;20023;-82
2022/04/25 07:48:49;;;;;;;35.53;4.03;;;;;;;36.92;19.94;96500.22;5108078;28;20067;-77
2022/04/25 07:51:15;;;;;;;29.88;5.03;;;;;;;37.20;19.63;96487.53;5098924;28;20039;-74
2022/04/25 07:53:45;;;;;;;55.05;5.85;;;;;;;37.54;20.47;96501.53;5107505;28;20027;-74
2022/04/25 07:56:12;;;;;;;54.55;5.38;;;;;;;37.46;19.97;96500.22;5089331;28;20016;-74
2022/04/25 07:58:37;;;;;;;37.95;5.43;;;;;;;36.34;20.07;96479.56;5092733;28;20036;-74
2022/04/25 08:01:04;;;;;;;41.10;5.75;;;;;;;36.30;21.02;96495.22;5110085;28;20035;-74
2022/04/25 08:03:29;;;;;;;40.45;5.40;;;;;;;35.74;21.08;96488.88;5110123;28;20026;-74
2022/04/25 08:05:55;;;;;;;37.75;4.97;;;;;;;35.88;21.21;96492.75;5109405;28;20430;-74
2022/04/25 08:08:21;;;;;;;37.95;5.05;;;;;;;36.62;21.86;96500.38;5091868;28;20534;-75
2022/04/25 08:10:46;;;;;;;32.83;5.55;;;;;;;36.76;20.09;96493.09;5109933;28;20037;-74
2022/04/25 08:18:41;;;;;;;43.78;5.25;;;;;;;35.77;20.67;96485.53;5109886;28;20402;-74
2022/04/25 08:21:07;;;;;;;35.65;4.90;;;;;;;35.84;19.62;96472.16;5110148;28;20110;-74
2022/04/25 08:23:32;;;;;;;39.30;5.45;;;;;;;36.59;19.37;96479.50;5092817;28;20106;-75
2022/04/25 08:25:58;;;;;;;36.78;4.53;;;;;;;37.49;18.90;96477.31;5092843;28;20028;-74
2022/04/25 08:28:25;;;;;;;54.90;5.38;;;;;;;36.81;17.75;96479.94;5111230;28;20394;-74
2022/04/25 08:30:52;;;;;;;41.00;5.10;;;;;;;34.90;20.41;96474.59;5110740;28;20051;-74
2022/04/25 08:33:19;;;;;;;42.15;5.07;;;;;;;35.85;18.93;96468.25;5092993;28;20027;-75
2022/04/25 08:35:45;;;;;;;38.08;5.20;;;;;;;36.02;19.06;96471.59;5092449;28;20119;-75
2022/04/25 08:38:11;;;;;;;40.08;4.55;;;;;;;35.79;19.41;96467.44;5092584;28;20106;-75
2022/04/25 08:40:36;;;;;;;29.35;3.78;;;;;;;35.07;19.24;96472.41;5111274;28;20062;-75
2022/04/25 08:43:04;;;;;;;52.75;5.13;;;;;;;35.26;19.74;96474.38;5110800;28;20093;-75
2022/04/25 08:45:31;;;;;;;39.13;4.18;;;;;;;34.75;18.59;96459.56;5096966;28;20027;-75
2022/04/25 08:47:58;;;;;;;44.35;4.88;;;;;;;34.30;18.99;96459.38;5113358;28;20072;-75
2022/04/25 08:50:24;;;;;;;42.20;4.95;;;;;;;34.02;19.81;96459.78;5096765;28;20118;-75
2022/04/25 08:52:51;;;;;;;47.40;4.80;;;;;;;34.08;19.59;96458.69;5096471;28;20082;-75
2022/04/25 08:55:17;;;;;;;26.08;4.75;;;;;;;33.99;20.21;96451.97;5113585;28;20111;-75
2022/04/25 08:57:44;;;;;;;48.65;4.55;;;;;;;35.05;18.76;96460.72;5113390;28;20091;-74
2022/04/25 09:00:10;;;;;;;32.58;4.47;;;;;;;35.70;18.49;96459.94;5113359;28;20026;-74
2022/04/25 09:02:38;;;;;;;37.67;4.82;;;;;;;36.47;18.11;96456.66;5096453;28;20055;-74
2022/04/25 09:05:11;;;;;;;38.45;4.75;;;;;;;36.78;17.10;96455.44;5113092;28;20554;-74
2022/04/25 09:07:37;;;;;;;45.47;4.43;;;;;;;35.99;17.73;96451.81;5113480;28;20092;-74
2022/04/25 09:10:16;;;;;;;24.90;3.55;;;;;;;35.50;17.53;96438.47;5096047;28;20031;-74
2022/04/25 09:12:46;;;;;;;26.80;3.55;;;;;;;36.62;17.30;96453.00;5113422;28;20348;-74
2022/04/25 09:15:12;;;;;;;35.75;3.90;;;;;;;36.82;17.35;96439.81;5096305;28;20114;-74
2022/04/25 09:17:39;;;;;;;37.33;4.55;;;;;;;37.39;16.88;96455.03;5113415;28;20027;-74
2022/04/25 09:20:06;;;;;;;26.60;3.78;;;;;;;37.02;17.27;96449.16;5095972;28;20491;-74
2022/04/25 09:22:39;;;;;;;25.00;3.92;;;;;;;34.01;19.06;96441.44;5096301;28;20462;-74
2022/04/25 09:25:13;;;;;;;35.08;4.75;;;;;;;33.66;19.78;96445.66;5112852;28;20102;-74
2022/04/25 09:27:39;;;;;;;25.25;3.88;;;;;;;35.46;17.26;96448.53;5095946;28;20027;-74
2022/04/25 09:30:31;;;;;;;32.13;4.55;;;;;;;37.33;16.40;96442.22;5095797;28;20505;-75
2022/04/25 09:32:57;;;;;;;24.20;4.70;;;;;;;37.25;16.35;96420.53;5090913;28;20036;-75
2022/04/25 09:35:53;;;;;;;33.88;3.88;;;;;;;37.08;16.76;96434.06;5095944;28;20470;-75
2022/04/25 09:38:29;;;;;;;26.73;4.13;;;;;;;36.93;16.40;96440.56;5096732;28;20126;-74
2022/04/25 09:40:55;;;;;;;27.02;3.40;;;;;;;37.63;15.75;96419.66;5112762;28;20065;-74
2022/04/25 09:43:30;;;;;;;29.95;3.85;;;;;;;38.24;16.16;96428.22;5095545;28;20024;-75
2022/04/25 09:46:04;;;;;;;34.45;4.35;;;;;;;35.80;17.49;96427.34;5112590;28;20027;-74
2022/04/25 09:48:30;;;;;;;25.38;3.88;;;;;;;35.70;18.04;96432.94;5112586;28;20027;-75
2022/04/25 09:51:00;;;;;;;27.13;4.05;;;;;;;36.05;17.58;96420.91;5095367;28;20031;-76
2022/04/25 09:53:49;;;;;;;29.63;4.45;;;;;;;37.02;16.30;96415.69;5112461;28;20112;-76
2022/04/25 09:56:27;;;;;;;25.73;4.10;;;;;;;37.55;16.24;96422.25;5111471;28;20031;-75
2022/04/25 09:59:01;;;;;;;28.00;3.88;;;;;;;38.82;16.14;96422.50;5095481;28;20035;-75
2022/04/25 10:01:27;;;;;;;26.23;3.78;;;;;;;39.42;15.65;96431.91;5095298;28;20027;-76
2022/04/25 10:03:53;;;;;;;24.65;3.50;;;;;;;37.98;15.79;96413.72;5112376;28;20047;-75
2022/04/25 10:06:21;;;;;;;19.98;3.03;;;;;;;38.31;15.68;96411.94;5112026;28;20075;-75
2022/04/25 10:08:47;;;;;;;28.50;3.53;;;;;;;37.53;15.61;96416.97;5112163;28;20061;-75
2022/04/25 10:11:13;;;;;;;29.85;4.07;;;;;;;37.67;16.07;96420.75;5094978;28;20035;-75
2022/04/25 10:13:39;;;;;;;27.00;3.55;;;;;;;38.62;15.03;96420.78;5112245;28;20019;-75
2022/04/25 10:16:05;;;;;;;28.65;3.92;;;;;;;38.41;15.39;96416.59;5094919;28;20039;-75
2022/04/25 10:18:34;;;;;;;26.92;3.47;;;;;;;37.25;17.01;96413.00;5095091;28;20521;-75
2022/04/25 10:21:00;;;;;;;29.80;3.70;;;;;;;38.90;15.60;96419.00;5112034;28;20028;-75
2022/04/25 10:23:26;;;;;;;25.52;4.13;;;;;;;38.64;16.18;96426.88;5112918;27;20496;-75
2022/04/25 10:25:55;;;;;;;26.40;3.40;;;;;;;39.73;15.23;96413.47;5095028;28;20046;-76
2022/04/25 10:28:39;;;;;;;18.23;3.42;;;;;;;39.90;14.90;96410.09;5112843;28;20027;-75
2022/04/25 10:31:08;;;;;;;22.73;3.85;;;;;;;39.52;14.94;96414.94;5111941;28;20077;-75
2022/04/25 10:33:47;;;;;;;27.52;3.70;;;;;;;39.65;14.74;96413.31;5111727;28;20047;-76
2022/04/25 10:36:38;;;;;;;32.25;4.20;;;;;;;39.26;15.51;96413.69;5112734;28;20152;-76
2022/04/25 10:39:24;;;;;;;19.00;3.65;;;;;;;39.77;14.81;96399.69;5111442;28;20031;-75
2022/04/25 10:44:36;;;;;;;26.42;4.25;;;;;;;38.76;14.23;96396.53;5113122;28;20517;-75
2022/04/25 10:47:05;;;;;;;18.23;3.72;;;;;;;37.29;15.32;96400.13;5111616;28;20031;-75
2022/04/25 10:49:53;;;;;;;26.90;4.18;;;;;;;37.91;15.70;96396.50;5112447;28;20047;-75
2022/04/25 10:52:34;;;;;;;21.17;3.38;;;;;;;39.20;14.98;96400.91;5111137;28;20106;-75
2022/04/25 10:55:13;;;;;;;31.13;3.95;;;;;;;39.38;14.74;96394.47;5111357;28;20051;-74
2022/04/25 10:58:04;;;;;;;24.90;3.45;;;;;;;38.70;14.73;96402.50;5111207;28;20489;-74
2022/04/25 11:00:45;;;;;;;17.98;3.63;;;;;;;38.25;14.49;96385.19;5112242;28;20027;-74
2022/04/25 11:03:20;;;;;;;16.35;2.72;;;;;;;39.44;13.73;96382.88;5112861;28;20555;-74
2022/04/25 11:05:57;;;;;;;19.58;3.97;;;;;;;40.33;13.48;96379.81;5112190;28;20490;-75
2022/04/25 11:08:34;;;;;;;17.98;3.10;;;;;;;41.04;12.60;96391.09;5111321;27;20051;-74
2022/04/25 11:11:18;;;;;;;22.30;3.20;;;;;;;41.45;11.56;96373.28;5090753;28;20497;-84
2022/04/25 11:13:49;;;;;;;11.38;2.53;;;;;;;41.52;11.86;96384.91;5111437;28;20459;-81
2022/04/25 11:16:22;;;;;;;15.90;2.33;;;;;;;41.50;11.09;96370.34;5108886;28;20088;-74
2022/04/25 11:19:11;;;;;;;25.30;2.92;;;;;;;40.57;11.98;96375.66;5092462;28;20049;-74
2022/04/25 11:21:43;;;;;;;19.73;2.92;;;;;;;40.79;11.83;96371.22;5107327;28;20542;-74
2022/04/25 11:24:33;;;;;;;32.75;4.80;;;;;;;37.23;15.43;96384.53;5091887;28;20396;-78
2022/04/25 11:27:01;;;;;;;28.27;3.00;;;;;;;35.90;16.55;96382.75;5092936;28;20172;-74
2022/04/25 11:29:26;;;;;;;20.58;2.67;;;;;;;35.99;16.88;96388.59;5109427;28;20443;-79
2022/04/25 11:32:43;;;;;;;29.35;4.05;;;;;;;36.17;17.26;96398.31;5093369;28;20114;-80
2022/04/25 11:35:11;;;;;;;29.95;3.45;;;;;;;34.39;18.21;96399.41;5098217;27;20070;-77
2022/04/25 11:37:36;;;;;;;21.92;3.20;;;;;;;33.33;18.67;96393.25;5095161;28;20081;-77
2022/04/25 11:40:07;;;;;;;34.47;4.20;;;;;;;33.30;19.04;96395.72;5093360;28;20035;-76
2022/04/25 11:42:34;;;;;;;29.20;3.80;;;;;;;33.75;18.25;96399.66;5093345;28;20114;-77
2022/04/25 11:45:01;;;;;;;18.38;3.22;;;;;;;34.53;18.05;96411.66;5109955;28;20027;-76
2022/04/25 11:47:29;;;;;;;23.27;3.00;;;;;;;33.73;17.96;96398.25;5111550;28;20026;-76
2022/04/25 11:50:05;;;;;;;15.30;2.75;;;;;;;32.35;19.37;96400.06;5110205;28;20102;-76
2022/04/25 11:52:31;;;;;;;23.65;3.58;;;;;;;31.82;19.79;96394.41;5093519;28;20035;-80
2022/04/25 11:54:56;;;;;;;27.25;3.20;;;;;;;32.08;19.86;96399.22;5113863;28;20161;-81
2022/04/25 11:57:24;;;;;;;25.55;4.60;;;;;;;33.97;19.00;96402.25;5111308;28;20175;-76
2022/04/25 12:00:08;;;;;;;18.02;3.10;;;;;;;34.19;18.04;96399.34;5092863;28;20027;-76
2022/04/25 12:02:35;;;;;;;17.75;3.00;;;;;;;33.40;18.31;96395.81;5122871;27;20062;-77